sensor_id;sensor_type;location;lat;lon;timestamp;P1;durP1;ratioP1;P2;durP2;ratioP2
70369;SDS011;57790;51.356;-2.906;2023-04-01T00:02:11;11.70;;;1.20;;
70369;SDS011;57790;51.356;-2.906;2023-04-01T00:05:12;9.70;;;1.40;;
70369;SDS011;57790;51.356;-2.906;2023-04-01T00:08:12;11.52;;;1.63;;
70369;SDS011;57790;51.356;-2.906;2023-04-01T00:11:13;10.80;;;1.40;;
70369;SDS011;57790;51.356;-2.906;2023-04-01T00:14:14;11.85;;;1.55;;
70369;SDS011;57790;51.356;-2.906;2023-04-01T00:17:15;9.33;;;1.23;;
70369;SDS011;57790;51.356;-2.906;2023-04-01T00:20:15;14.10;;;1.73;;
70369;SDS011;57790;51.356;-2.906;2023-04-01T00:23:16;11.90;;;1.40;;
70369;SDS011;57790;51.356;-2.906;2023-04-01T00:26:17;13.00;;;1.63;;
70369;SDS011;57790;51.356;-2.906;2023-04-01T00:29:20;9.95;;;1.60;;
70369;SDS011;57790;51.356;-2.906;2023-04-01T00:32:21;9.20;;;1.50;;
70369;SDS011;57790;51.356;-2.906;2023-04-01T00:35:22;12.40;;;1.50;;
70369;SDS011;57790;51.356;-2.906;2023-04-01T00:38:22;10.83;;;1.20;;
70369;SDS011;57790;51.356;-2.906;2023-04-01T00:41:22;8.57;;;1.50;;
70369;SDS011;57790;51.356;-2.906;2023-04-01T00:44:24;13.23;;;1.10;;
70369;SDS011;57790;51.356;-2.906;2023-04-01T00:47:26;6.53;;;1.23;;
70369;SDS011;57790;51.356;-2.906;2023-04-01T00:50:27;9.52;;;1.63;;
70369;SDS011;57790;51.356;-2.906;2023-04-01T00:53:29;7.78;;;1.02;;
70369;SDS011;57790;51.356;-2.906;2023-04-01T00:56:38;8.77;;;1.30;;
70369;SDS011;57790;51.356;-2.906;2023-04-01T00:59:46;9.07;;;1.13;;
70369;SDS011;57790;51.356;-2.906;2023-04-01T01:02:49;10.68;;;1.60;;
70369;SDS011;57790;51.356;-2.906;2023-04-01T01:09:15;9.00;;;1.30;;
70369;SDS011;57790;51.356;-2.906;2023-04-01T01:12:28;9.88;;;1.17;;
70369;SDS011;57790;51.356;-2.906;2023-04-01T01:15:40;10.43;;;1.47;;
70369;SDS011;57790;51.356;-2.906;2023-04-01T01:18:51;10.07;;;1.45;;
70369;SDS011;57790;51.356;-2.906;2023-04-01T01:22:06;11.13;;;1.40;;
70369;SDS011;57790;51.356;-2.906;2023-04-01T01:25:15;10.70;;;1.35;;
70369;SDS011;57790;51.356;-2.906;2023-04-01T01:38:34;6.97;;;1.20;;
70369;SDS011;57790;51.356;-2.906;2023-04-01T01:41:36;11.18;;;1.42;;
70369;SDS011;57790;51.356;-2.906;2023-04-01T01:44:40;7.28;;;1.10;;
70369;SDS011;57790;51.356;-2.906;2023-04-01T01:47:43;8.87;;;1.03;;
70369;SDS011;57790;51.356;-2.906;2023-04-01T01:50:45;7.18;;;1.00;;
70369;SDS011;57790;51.356;-2.906;2023-04-01T01:53:48;6.75;;;1.08;;
70369;SDS011;57790;51.356;-2.906;2023-04-01T01:56:49;7.47;;;1.10;;
70369;SDS011;57790;51.356;-2.906;2023-04-01T01:59:56;7.47;;;1.30;;
70369;SDS011;57790;51.356;-2.906;2023-04-01T02:03:03;5.47;;;0.95;;
70369;SDS011;57790;51.356;-2.906;2023-04-01T02:06:06;10.27;;;1.40;;
70369;SDS011;57790;51.356;-2.906;2023-04-01T02:09:09;9.33;;;1.23;;
70369;SDS011;57790;51.356;-2.906;2023-04-01T02:12:12;8.65;;;1.52;;
70369;SDS011;57790;51.356;-2.906;2023-04-01T02:15:16;10.80;;;1.20;;
70369;SDS011;57790;51.356;-2.906;2023-04-01T02:18:20;9.60;;;1.17;;
70369;SDS011;57790;51.356;-2.906;2023-04-01T02:21:22;6.70;;;1.05;;
70369;SDS011;57790;51.356;-2.906;2023-04-01T02:24:26;9.03;;;1.17;;
70369;SDS011;57790;51.356;-2.906;2023-04-01T02:27:30;8.27;;;1.05;;
70369;SDS011;57790;51.356;-2.906;2023-04-01T02:30:32;11.35;;;1.20;;
70369;SDS011;57790;51.356;-2.906;2023-04-01T02:33:35;8.05;;;1.17;;
70369;SDS011;57790;51.356;-2.906;2023-04-01T02:36:38;6.40;;;0.90;;
70369;SDS011;57790;51.356;-2.906;2023-04-01T02:39:39;9.40;;;1.80;;
70369;SDS011;57790;51.356;-2.906;2023-04-01T02:42:40;7.40;;;1.07;;
70369;SDS011;57790;51.356;-2.906;2023-04-01T02:45:40;7.45;;;1.05;;
70369;SDS011;57790;51.356;-2.906;2023-04-01T02:48:41;9.67;;;1.30;;
70369;SDS011;57790;51.356;-2.906;2023-04-01T02:51:41;10.60;;;1.10;;
70369;SDS011;57790;51.356;-2.906;2023-04-01T02:54:41;9.47;;;1.10;;
70369;SDS011;57790;51.356;-2.906;2023-04-01T02:57:42;5.67;;;0.83;;
70369;SDS011;57790;51.356;-2.906;2023-04-01T03:00:42;6.80;;;1.20;;
70369;SDS011;57790;51.356;-2.906;2023-04-01T03:03:42;10.90;;;1.30;;
70369;SDS011;57790;51.356;-2.906;2023-04-01T03:06:43;8.87;;;1.30;;
70369;SDS011;57790;51.356;-2.906;2023-04-01T03:09:43;10.67;;;1.30;;
70369;SDS011;57790;51.356;-2.906;2023-04-01T03:12:44;8.13;;;1.13;;
70369;SDS011;57790;51.356;-2.906;2023-04-01T03:15:44;9.17;;;1.10;;
70369;SDS011;57790;51.356;-2.906;2023-04-01T03:18:44;8.10;;;1.25;;
70369;SDS011;57790;51.356;-2.906;2023-04-01T03:21:45;7.70;;;1.10;;
70369;SDS011;57790;51.356;-2.906;2023-04-01T03:24:45;7.63;;;1.13;;
70369;SDS011;57790;51.356;-2.906;2023-04-01T03:27:46;8.40;;;1.13;;
70369;SDS011;57790;51.356;-2.906;2023-04-01T03:30:46;11.75;;;1.55;;
70369;SDS011;57790;51.356;-2.906;2023-04-01T03:33:47;8.60;;;1.23;;
70369;SDS011;57790;51.356;-2.906;2023-04-01T03:36:47;9.53;;;1.10;;
70369;SDS011;57790;51.356;-2.906;2023-04-01T03:39:48;11.13;;;1.60;;
70369;SDS011;57790;51.356;-2.906;2023-04-01T03:42:48;8.70;;;1.45;;
70369;SDS011;57790;51.356;-2.906;2023-04-01T03:45:50;8.63;;;1.33;;
70369;SDS011;57790;51.356;-2.906;2023-04-01T03:48:51;14.73;;;1.42;;
70369;SDS011;57790;51.356;-2.906;2023-04-01T03:51:51;7.00;;;1.00;;
70369;SDS011;57790;51.356;-2.906;2023-04-01T03:54:52;8.40;;;1.10;;
70369;SDS011;57790;51.356;-2.906;2023-04-01T03:57:52;9.70;;;1.47;;
70369;SDS011;57790;51.356;-2.906;2023-04-01T04:00:53;11.10;;;1.40;;
70369;SDS011;57790;51.356;-2.906;2023-04-01T04:03:53;11.47;;;1.33;;
70369;SDS011;57790;51.356;-2.906;2023-04-01T04:06:54;11.95;;;1.33;;
70369;SDS011;57790;51.356;-2.906;2023-04-01T04:09:55;9.97;;;1.87;;
70369;SDS011;57790;51.356;-2.906;2023-04-01T04:12:55;11.90;;;1.70;;
70369;SDS011;57790;51.356;-2.906;2023-04-01T04:15:55;12.13;;;1.50;;
70369;SDS011;57790;51.356;-2.906;2023-04-01T04:18:56;10.13;;;1.07;;
70369;SDS011;57790;51.356;-2.906;2023-04-01T04:21:56;11.33;;;1.60;;
70369;SDS011;57790;51.356;-2.906;2023-04-01T04:24:57;8.52;;;1.00;;
70369;SDS011;57790;51.356;-2.906;2023-04-01T04:27:57;8.60;;;1.60;;
70369;SDS011;57790;51.356;-2.906;2023-04-01T04:30:58;9.40;;;1.00;;
70369;SDS011;57790;51.356;-2.906;2023-04-01T04:33:59;10.88;;;1.98;;
70369;SDS011;57790;51.356;-2.906;2023-04-01T04:37:03;8.68;;;1.23;;
70369;SDS011;57790;51.356;-2.906;2023-04-01T04:40:03;9.57;;;1.10;;
70369;SDS011;57790;51.356;-2.906;2023-04-01T04:43:05;5.53;;;0.88;;
70369;SDS011;57790;51.356;-2.906;2023-04-01T04:46:09;9.07;;;1.10;;
70369;SDS011;57790;51.356;-2.906;2023-04-01T04:49:10;9.18;;;0.90;;
70369;SDS011;57790;51.356;-2.906;2023-04-01T04:52:10;7.83;;;1.20;;
70369;SDS011;57790;51.356;-2.906;2023-04-01T04:55:11;9.88;;;1.08;;
70369;SDS011;57790;51.356;-2.906;2023-04-01T04:58:11;5.80;;;0.83;;
70369;SDS011;57790;51.356;-2.906;2023-04-01T05:01:13;9.53;;;1.17;;
70369;SDS011;57790;51.356;-2.906;2023-04-01T05:04:15;9.60;;;1.50;;
70369;SDS011;57790;51.356;-2.906;2023-04-01T05:07:15;9.87;;;1.60;;
70369;SDS011;57790;51.356;-2.906;2023-04-01T05:10:16;6.13;;;1.00;;
70369;SDS011;57790;51.356;-2.906;2023-04-01T05:13:16;8.40;;;1.20;;
70369;SDS011;57790;51.356;-2.906;2023-04-01T05:16:17;7.65;;;0.90;;
70369;SDS011;57790;51.356;-2.906;2023-04-01T05:19:19;8.00;;;1.10;;
70369;SDS011;57790;51.356;-2.906;2023-04-01T05:22:20;10.32;;;1.23;;
70369;SDS011;57790;51.356;-2.906;2023-04-01T05:25:20;9.20;;;1.20;;
70369;SDS011;57790;51.356;-2.906;2023-04-01T05:28:21;11.33;;;1.70;;
70369;SDS011;57790;51.356;-2.906;2023-04-01T05:31:21;9.75;;;1.63;;
70369;SDS011;57790;51.356;-2.906;2023-04-01T05:34:23;10.67;;;1.20;;
70369;SDS011;57790;51.356;-2.906;2023-04-01T05:37:24;10.27;;;1.25;;
70369;SDS011;57790;51.356;-2.906;2023-04-01T05:40:25;7.93;;;1.00;;
70369;SDS011;57790;51.356;-2.906;2023-04-01T05:43:25;13.87;;;1.60;;
70369;SDS011;57790;51.356;-2.906;2023-04-01T05:46:26;8.43;;;1.20;;
70369;SDS011;57790;51.356;-2.906;2023-04-01T05:49:26;9.43;;;1.23;;
70369;SDS011;57790;51.356;-2.906;2023-04-01T05:52:26;8.77;;;1.27;;
70369;SDS011;57790;51.356;-2.906;2023-04-01T05:55:27;10.83;;;1.50;;
70369;SDS011;57790;51.356;-2.906;2023-04-01T05:58:27;10.63;;;1.27;;
70369;SDS011;57790;51.356;-2.906;2023-04-01T06:01:28;9.27;;;1.27;;
70369;SDS011;57790;51.356;-2.906;2023-04-01T06:04:28;11.52;;;1.55;;
70369;SDS011;57790;51.356;-2.906;2023-04-01T06:07:37;6.83;;;1.10;;
70369;SDS011;57790;51.356;-2.906;2023-04-01T06:14:10;8.00;;;1.20;;
70369;SDS011;57790;51.356;-2.906;2023-04-01T06:27:19;8.18;;;1.20;;
70369;SDS011;57790;51.356;-2.906;2023-04-01T06:54:17;5.63;;;0.93;;
70369;SDS011;57790;51.356;-2.906;2023-04-01T06:57:42;8.32;;;1.00;;
70369;SDS011;57790;51.356;-2.906;2023-04-01T07:00:44;7.22;;;1.40;;
70369;SDS011;57790;51.356;-2.906;2023-04-01T07:06:56;10.93;;;1.25;;
70369;SDS011;57790;51.356;-2.906;2023-04-01T07:09:58;9.67;;;1.10;;
70369;SDS011;57790;51.356;-2.906;2023-04-01T07:13:03;8.70;;;0.80;;
70369;SDS011;57790;51.356;-2.906;2023-04-01T07:16:24;10.55;;;1.20;;
70369;SDS011;57790;51.356;-2.906;2023-04-01T07:19:34;9.93;;;1.10;;
70369;SDS011;57790;51.356;-2.906;2023-04-01T07:22:43;8.07;;;1.10;;
70369;SDS011;57790;51.356;-2.906;2023-04-01T07:25:51;8.17;;;1.20;;
70369;SDS011;57790;51.356;-2.906;2023-04-01T07:28:55;9.40;;;1.40;;
70369;SDS011;57790;51.356;-2.906;2023-04-01T07:52:07;6.83;;;1.40;;
70369;SDS011;57790;51.356;-2.906;2023-04-01T08:02:06;8.70;;;1.57;;
70369;SDS011;57790;51.356;-2.906;2023-04-01T08:11:40;8.30;;;1.50;;
70369;SDS011;57790;51.356;-2.906;2023-04-01T08:21:58;6.10;;;1.47;;
70369;SDS011;57790;51.356;-2.906;2023-04-01T08:25:04;6.82;;;1.60;;
70369;SDS011;57790;51.356;-2.906;2023-04-01T08:28:23;6.78;;;1.60;;
70369;SDS011;57790;51.356;-2.906;2023-04-01T08:35:07;8.37;;;1.57;;
70369;SDS011;57790;51.356;-2.906;2023-04-01T09:05:26;7.43;;;1.27;;
70369;SDS011;57790;51.356;-2.906;2023-04-01T09:18:43;6.30;;;1.25;;
70369;SDS011;57790;51.356;-2.906;2023-04-01T09:22:35;5.57;;;1.30;;
70369;SDS011;57790;51.356;-2.906;2023-04-01T09:32:12;6.82;;;1.40;;
70369;SDS011;57790;51.356;-2.906;2023-04-01T09:42:14;7.82;;;1.20;;
70369;SDS011;57790;51.356;-2.906;2023-04-01T09:52:56;5.63;;;1.00;;
70369;SDS011;57790;51.356;-2.906;2023-04-01T10:29:30;6.93;;;1.70;;
70369;SDS011;57790;51.356;-2.906;2023-04-01T10:43:03;5.88;;;1.40;;
70369;SDS011;57790;51.356;-2.906;2023-04-01T10:50:24;6.72;;;1.00;;
70369;SDS011;57790;51.356;-2.906;2023-04-01T10:53:41;5.97;;;0.95;;
70369;SDS011;57790;51.356;-2.906;2023-04-01T10:56:59;5.40;;;1.30;;
70369;SDS011;57790;51.356;-2.906;2023-04-01T11:00:06;4.75;;;1.10;;
70369;SDS011;57790;51.356;-2.906;2023-04-01T11:03:41;4.80;;;0.80;;
70369;SDS011;57790;51.356;-2.906;2023-04-01T11:47:27;3.95;;;0.80;;
70369;SDS011;57790;51.356;-2.906;2023-04-01T11:51:00;3.88;;;1.05;;
70369;SDS011;57790;51.356;-2.906;2023-04-01T12:14:58;3.20;;;0.63;;
70369;SDS011;57790;51.356;-2.906;2023-04-01T12:38:03;2.95;;;0.80;;
70369;SDS011;57790;51.356;-2.906;2023-04-01T12:54:24;5.07;;;1.40;;
70369;SDS011;57790;51.356;-2.906;2023-04-01T13:10:50;6.25;;;2.15;;
70369;SDS011;57790;51.356;-2.906;2023-04-01T13:18:33;6.33;;;2.03;;
70369;SDS011;57790;51.356;-2.906;2023-04-01T13:27:34;7.85;;;2.50;;
70369;SDS011;57790;51.356;-2.906;2023-04-01T13:55:03;6.55;;;2.33;;
70369;SDS011;57790;51.356;-2.906;2023-04-01T13:58:29;7.38;;;2.42;;
70369;SDS011;57790;51.356;-2.906;2023-04-01T14:01:47;8.25;;;2.40;;
70369;SDS011;57790;51.356;-2.906;2023-04-01T14:21:43;6.93;;;2.20;;
70369;SDS011;57790;51.356;-2.906;2023-04-01T14:28:49;5.88;;;2.10;;
70369;SDS011;57790;51.356;-2.906;2023-04-01T14:32:00;5.93;;;1.80;;
70369;SDS011;57790;51.356;-2.906;2023-04-01T14:35:53;5.90;;;1.90;;
70369;SDS011;57790;51.356;-2.906;2023-04-01T14:45:54;5.95;;;1.73;;
70369;SDS011;57790;51.356;-2.906;2023-04-01T14:49:36;5.45;;;1.77;;
70369;SDS011;57790;51.356;-2.906;2023-04-01T14:52:40;4.15;;;1.30;;
70369;SDS011;57790;51.356;-2.906;2023-04-01T14:55:51;5.25;;;1.48;;
70369;SDS011;57790;51.356;-2.906;2023-04-01T14:58:57;4.93;;;1.30;;
70369;SDS011;57790;51.356;-2.906;2023-04-01T15:02:02;4.55;;;1.48;;
70369;SDS011;57790;51.356;-2.906;2023-04-01T15:12:16;3.70;;;1.30;;
70369;SDS011;57790;51.356;-2.906;2023-04-01T15:25:32;4.35;;;1.30;;
70369;SDS011;57790;51.356;-2.906;2023-04-01T15:39:38;3.13;;;1.20;;
70369;SDS011;57790;51.356;-2.906;2023-04-01T15:43:10;4.60;;;1.15;;
70369;SDS011;57790;51.356;-2.906;2023-04-01T15:49:39;3.33;;;0.87;;
70369;SDS011;57790;51.356;-2.906;2023-04-01T15:52:50;3.70;;;0.93;;
70369;SDS011;57790;51.356;-2.906;2023-04-01T16:12:15;4.43;;;1.30;;
70369;SDS011;57790;51.356;-2.906;2023-04-01T16:15:24;4.72;;;1.38;;
70369;SDS011;57790;51.356;-2.906;2023-04-01T16:22:20;4.70;;;1.43;;
70369;SDS011;57790;51.356;-2.906;2023-04-01T16:28:42;5.45;;;1.50;;
70369;SDS011;57790;51.356;-2.906;2023-04-01T16:32:27;4.93;;;1.50;;
70369;SDS011;57790;51.356;-2.906;2023-04-01T16:48:15;4.87;;;1.50;;
70369;SDS011;57790;51.356;-2.906;2023-04-01T16:51:20;4.93;;;1.40;;
70369;SDS011;57790;51.356;-2.906;2023-04-01T16:57:36;3.60;;;1.40;;
70369;SDS011;57790;51.356;-2.906;2023-04-01T17:00:49;5.27;;;1.40;;
70369;SDS011;57790;51.356;-2.906;2023-04-01T17:04:38;4.82;;;1.42;;
70369;SDS011;57790;51.356;-2.906;2023-04-01T17:10:51;5.32;;;1.50;;
70369;SDS011;57790;51.356;-2.906;2023-04-01T17:17:23;4.53;;;1.40;;
70369;SDS011;57790;51.356;-2.906;2023-04-01T17:20:50;4.05;;;1.23;;
70369;SDS011;57790;51.356;-2.906;2023-04-01T17:24:09;4.65;;;1.50;;
70369;SDS011;57790;51.356;-2.906;2023-04-01T17:30:35;4.38;;;1.20;;
70369;SDS011;57790;51.356;-2.906;2023-04-01T17:37:15;4.82;;;1.20;;
70369;SDS011;57790;51.356;-2.906;2023-04-01T17:43:45;3.75;;;1.20;;
70369;SDS011;57790;51.356;-2.906;2023-04-01T18:01:12;5.05;;;1.40;;
70369;SDS011;57790;51.356;-2.906;2023-04-01T18:07:44;5.73;;;1.33;;
70369;SDS011;57790;51.356;-2.906;2023-04-01T18:14:48;6.22;;;1.50;;
70369;SDS011;57790;51.356;-2.906;2023-04-01T18:21:14;5.93;;;1.65;;
70369;SDS011;57790;51.356;-2.906;2023-04-01T18:24:32;4.17;;;1.10;;
70369;SDS011;57790;51.356;-2.906;2023-04-01T18:27:43;4.57;;;1.38;;
70369;SDS011;57790;51.356;-2.906;2023-04-01T18:38:00;5.68;;;1.70;;
70369;SDS011;57790;51.356;-2.906;2023-04-01T18:41:13;7.33;;;2.00;;
70369;SDS011;57790;51.356;-2.906;2023-04-01T18:47:43;7.00;;;2.10;;
70369;SDS011;57790;51.356;-2.906;2023-04-01T18:50:57;6.70;;;1.98;;
70369;SDS011;57790;51.356;-2.906;2023-04-01T18:54:05;6.22;;;1.90;;
70369;SDS011;57790;51.356;-2.906;2023-04-01T18:57:24;6.93;;;1.90;;
70369;SDS011;57790;51.356;-2.906;2023-04-01T19:00:33;6.88;;;1.70;;
70369;SDS011;57790;51.356;-2.906;2023-04-01T19:07:17;6.30;;;1.73;;
70369;SDS011;57790;51.356;-2.906;2023-04-01T19:14:46;7.27;;;1.90;;
70369;SDS011;57790;51.356;-2.906;2023-04-01T19:27:48;4.93;;;1.40;;
70369;SDS011;57790;51.356;-2.906;2023-04-01T19:30:54;6.23;;;1.20;;
70369;SDS011;57790;51.356;-2.906;2023-04-01T19:37:33;2.28;;;0.70;;
70369;SDS011;57790;51.356;-2.906;2023-04-01T19:51:09;3.08;;;0.70;;
70369;SDS011;57790;51.356;-2.906;2023-04-01T20:00:51;2.30;;;0.70;;
70369;SDS011;57790;51.356;-2.906;2023-04-01T20:04:13;3.10;;;0.70;;
70369;SDS011;57790;51.356;-2.906;2023-04-01T20:14:46;3.35;;;0.90;;
70369;SDS011;57790;51.356;-2.906;2023-04-01T20:17:50;4.75;;;1.20;;
70369;SDS011;57790;51.356;-2.906;2023-04-01T20:20:54;2.70;;;1.00;;
70369;SDS011;57790;51.356;-2.906;2023-04-01T20:24:07;4.90;;;1.15;;
70369;SDS011;57790;51.356;-2.906;2023-04-01T20:27:17;4.13;;;1.25;;
70369;SDS011;57790;51.356;-2.906;2023-04-01T20:50:34;3.88;;;1.10;;
70369;SDS011;57790;51.356;-2.906;2023-04-01T21:00:27;4.53;;;1.40;;
70369;SDS011;57790;51.356;-2.906;2023-04-01T21:03:45;2.47;;;0.95;;
70369;SDS011;57790;51.356;-2.906;2023-04-01T21:07:08;4.30;;;1.20;;
70369;SDS011;57790;51.356;-2.906;2023-04-01T21:10:24;3.27;;;0.93;;
70369;SDS011;57790;51.356;-2.906;2023-04-01T21:26:47;2.00;;;0.80;;
70369;SDS011;57790;51.356;-2.906;2023-04-01T21:30:04;3.47;;;0.93;;
70369;SDS011;57790;51.356;-2.906;2023-04-01T21:50:19;2.83;;;0.90;;
70369;SDS011;57790;51.356;-2.906;2023-04-01T21:53:44;3.08;;;0.90;;
70369;SDS011;57790;51.356;-2.906;2023-04-01T22:00:29;2.20;;;0.70;;
70369;SDS011;57790;51.356;-2.906;2023-04-01T22:10:03;3.60;;;1.00;;
70369;SDS011;57790;51.356;-2.906;2023-04-01T22:16:59;2.43;;;0.60;;
70369;SDS011;57790;51.356;-2.906;2023-04-01T22:23:31;3.63;;;0.90;;
70369;SDS011;57790;51.356;-2.906;2023-04-01T22:32:59;2.73;;;0.60;;
70369;SDS011;57790;51.356;-2.906;2023-04-01T22:36:10;3.58;;;0.63;;
70369;SDS011;57790;51.356;-2.906;2023-04-01T22:49:03;2.20;;;0.60;;
70369;SDS011;57790;51.356;-2.906;2023-04-01T22:52:31;2.78;;;0.65;;
70369;SDS011;57790;51.356;-2.906;2023-04-01T22:55:35;3.37;;;0.70;;
70369;SDS011;57790;51.356;-2.906;2023-04-01T22:58:46;1.90;;;0.50;;
70369;SDS011;57790;51.356;-2.906;2023-04-01T23:01:54;3.88;;;0.60;;
70369;SDS011;57790;51.356;-2.906;2023-04-01T23:05:00;2.30;;;0.65;;
70369;SDS011;57790;51.356;-2.906;2023-04-01T23:11:52;1.97;;;0.50;;
70369;SDS011;57790;51.356;-2.906;2023-04-01T23:15:13;3.13;;;0.60;;
70369;SDS011;57790;51.356;-2.906;2023-04-01T23:18:20;2.45;;;0.70;;
70369;SDS011;57790;51.356;-2.906;2023-04-01T23:21:31;3.80;;;0.70;;
70369;SDS011;57790;51.356;-2.906;2023-04-01T23:28:14;2.07;;;0.67;;
70369;SDS011;57790;51.356;-2.906;2023-04-01T23:34:35;2.70;;;0.60;;
70369;SDS011;57790;51.356;-2.906;2023-04-01T23:37:36;3.10;;;0.75;;
70369;SDS011;57790;51.356;-2.906;2023-04-01T23:40:36;2.57;;;0.87;;
70369;SDS011;57790;51.356;-2.906;2023-04-01T23:43:38;3.70;;;0.80;;
70369;SDS011;57790;51.356;-2.906;2023-04-01T23:46:42;3.50;;;0.70;;
70369;SDS011;57790;51.356;-2.906;2023-04-01T23:52:57;2.45;;;0.70;;
70369;SDS011;57790;51.356;-2.906;2023-04-01T23:56:02;2.47;;;0.80;;
70369;SDS011;57790;51.356;-2.906;2023-04-01T23:59:03;3.40;;;0.60;;
